Pagina principale
METAR-TAF:

METAR-TAF

Aeroporti :

Locarno, Svizzera

Aeroporto di Magadino

latitudine: 46-09-55N, longitudine: 8-52-40E, altezza: 198 m

Osservazione

Il bollettino è stato emesso 24 minuti fa, alle 00:50 UTC
Vento 2 kt da direzioni variabili
Temperature 1°C
Umidità 93%
Pressione 1000 hPa
Visibilità 10 km o più
Nuvoloso ad un'altezza di 9400 ft

METAR: LSZL 170050Z AUTO VRB02KT 9999NDV BKN094 01/M00 Q1000 RMK

Ora: 02:14 (01:14 UTC)

Previsione

Il bollettino è stato emesso 7 ore e 49 minuti fa, alle 17:25 UTC
Previsione valida dal 16 alle 18 UTC al 17 alle 03 UTC
Vento 3 kt da direzioni variabili
Visibilità 10 km o più
Poco nuvoloso ad un'altezza di 3000 ft
Nubi sparse ad un'altezza di 7000 ft

TAF: LSZL 161725Z 1618/1703 VRB03KT 9999 FEW030 SCT070

Osservazioni e previsioni meteorologiche di più di 4000 aeroporti (messaggi METAR e TAF).

Le stazioni disponibili sono rappresentate dai dischi gialli e rossi sulla carta.

Puntare il mouse per vedere il nome della stazione.

Clicca sopra per visualizzare le osservazioni e previsioni meteorologiche.

Per cambiare la mappa : fare clic sui pulsanti verdi con una croce nera per ingrandire, il pulsante verde con un trattino per diminuire, o sulla freccia verde per le mappe adiacenti.


METAR-TAF: